createdAt,value
2018-06-03T00:00:50.818Z,22.20
2018-06-03T00:01:52.936Z,22.10
2018-06-03T00:02:55.062Z,22.10
2018-06-03T00:03:57.195Z,22.10
2018-06-03T00:04:59.304Z,22.10
2018-06-03T00:06:01.463Z,22.10
2018-06-03T00:07:03.587Z,22.00
2018-06-03T00:08:05.714Z,22.10
2018-06-03T00:09:07.870Z,22.10
2018-06-03T00:10:09.990Z,22.00
2018-06-03T00:11:12.094Z,22.00
2018-06-03T00:12:14.224Z,22.00
2018-06-03T00:13:16.372Z,22.00
2018-06-03T00:14:18.507Z,22.00
2018-06-03T00:15:20.621Z,22.00
2018-06-03T00:16:22.730Z,21.90
2018-06-03T00:18:26.992Z,21.90
2018-06-03T00:19:29.097Z,21.90
2018-06-03T00:20:42.789Z,21.90
2018-06-03T00:21:50.250Z,21.90
2018-06-03T00:22:53.080Z,21.90
2018-06-03T00:23:55.239Z,21.80
2018-06-03T00:24:57.419Z,21.80
2018-06-03T00:25:59.578Z,21.80
2018-06-03T00:28:04.071Z,21.80
2018-06-03T00:29:06.265Z,21.80
2018-06-03T00:30:08.431Z,21.80
2018-06-03T00:31:10.603Z,21.80
2018-06-03T00:32:12.816Z,21.80
2018-06-03T00:33:14.994Z,21.80
2018-06-03T00:34:17.160Z,21.80
2018-06-03T00:35:19.327Z,21.80
2018-06-03T00:36:33.179Z,21.80
2018-06-03T00:37:35.372Z,21.80
2018-06-03T00:38:37.562Z,21.80
2018-06-03T00:39:39.735Z,21.60
2018-06-03T00:40:41.898Z,21.70
2018-06-03T00:41:44.110Z,21.80
2018-06-03T00:42:46.286Z,21.70
2018-06-03T00:44:50.659Z,21.70
2018-06-03T00:45:52.822Z,21.60
2018-06-03T00:46:54.999Z,21.60
2018-06-03T00:47:57.179Z,21.60
2018-06-03T00:50:01.555Z,21.60
2018-06-03T00:51:03.758Z,21.60
2018-06-03T00:52:05.934Z,21.70
2018-06-03T00:53:08.098Z,21.60
2018-06-03T00:54:10.266Z,21.60
2018-06-03T00:55:12.426Z,21.60
2018-06-03T00:56:24.986Z,21.60
2018-06-03T00:57:27.147Z,21.50
2018-06-03T00:58:29.359Z,21.50
2018-06-03T00:59:31.523Z,21.50
2018-06-03T01:00:33.729Z,21.50
2018-06-03T01:01:35.895Z,21.50
2018-06-03T01:02:38.080Z,21.50
2018-06-03T01:03:40.282Z,21.40
2018-06-03T01:04:42.452Z,21.40
2018-06-03T01:05:44.614Z,21.40
2018-06-03T01:06:46.792Z,21.40
2018-06-03T01:07:48.980Z,21.40
2018-06-03T01:08:51.155Z,21.40
2018-06-03T01:09:53.318Z,21.40
2018-06-03T01:10:55.496Z,21.40
2018-06-03T01:11:57.669Z,21.40
2018-06-03T01:14:02.091Z,21.30
2018-06-03T01:15:04.297Z,21.30
2018-06-03T01:16:06.482Z,21.30
2018-06-03T01:17:08.671Z,21.30
2018-06-03T01:18:10.847Z,21.40
2018-06-03T01:19:13.015Z,21.30
2018-06-03T01:20:15.209Z,21.30
2018-06-03T01:21:17.379Z,21.30
2018-06-03T01:23:21.764Z,21.30
2018-06-03T01:24:23.951Z,21.30
2018-06-03T01:25:26.145Z,21.30
2018-06-03T01:26:28.315Z,21.30
2018-06-03T01:27:30.495Z,21.20
2018-06-03T01:28:32.705Z,21.30
2018-06-03T01:29:34.889Z,21.20
2018-06-03T01:30:37.059Z,21.30
2018-06-03T01:31:39.247Z,21.20
2018-06-03T01:32:41.411Z,21.20
2018-06-03T01:33:43.635Z,21.20
2018-06-03T01:34:45.808Z,21.20
2018-06-03T01:35:47.987Z,21.20
2018-06-03T01:36:50.188Z,21.20
2018-06-03T01:37:52.354Z,21.20
2018-06-03T01:38:54.534Z,21.20
2018-06-03T01:39:56.698Z,21.20
2018-06-03T01:40:58.867Z,21.20
2018-06-03T01:42:01.038Z,21.20
2018-06-03T01:43:03.238Z,21.20
2018-06-03T01:44:05.415Z,21.10
2018-06-03T01:45:07.582Z,21.10
2018-06-03T01:46:09.750Z,21.10
2018-06-03T01:47:11.912Z,21.10
2018-06-03T01:48:14.102Z,21.10
2018-06-03T01:49:16.278Z,21.10
2018-06-03T01:50:18.442Z,21.00
2018-06-03T01:51:20.614Z,21.00
2018-06-03T01:52:22.776Z,20.90
2018-06-03T01:53:24.954Z,21.00
2018-06-03T01:54:27.130Z,21.00
2018-06-03T01:55:29.303Z,20.90
2018-06-03T01:56:31.487Z,21.00
2018-06-03T01:57:33.651Z,21.00
2018-06-03T01:58:35.820Z,21.00
2018-06-03T01:59:38.003Z,21.00
2018-06-03T02:00:40.159Z,21.00
2018-06-03T02:01:42.332Z,21.00
2018-06-03T02:02:44.507Z,21.00
2018-06-03T02:04:48.895Z,21.00
2018-06-03T02:05:51.046Z,20.90
2018-06-03T02:06:53.237Z,20.90
2018-06-03T02:07:55.430Z,20.90
2018-06-03T02:08:57.614Z,20.90
2018-06-03T02:09:59.790Z,20.90
2018-06-03T02:11:01.967Z,20.90
2018-06-03T02:12:04.186Z,20.80
2018-06-03T02:13:06.355Z,20.90
2018-06-03T02:14:08.515Z,20.90
2018-06-03T02:15:10.684Z,20.90
2018-06-03T02:16:12.854Z,20.80
2018-06-03T02:17:15.026Z,20.80
2018-06-03T02:18:17.215Z,20.90
2018-06-03T02:19:19.394Z,20.80
2018-06-03T02:20:21.574Z,20.80
2018-06-03T02:21:23.739Z,20.80
2018-06-03T02:22:25.894Z,20.80
2018-06-03T02:23:28.070Z,20.80
2018-06-03T02:25:32.454Z,20.80
2018-06-03T02:26:34.658Z,20.80
2018-06-03T02:27:36.867Z,20.80
2018-06-03T02:28:39.054Z,20.80
2018-06-03T02:29:41.243Z,20.70
2018-06-03T02:30:43.403Z,20.70
2018-06-03T02:31:45.619Z,20.70
2018-06-03T02:32:47.823Z,20.60
2018-06-03T02:33:50.028Z,20.70
2018-06-03T02:34:52.230Z,20.60
2018-06-03T02:35:54.414Z,20.60
2018-06-03T02:36:56.570Z,20.60
2018-06-03T02:37:58.727Z,20.60
2018-06-03T02:39:00.935Z,20.60
2018-06-03T02:40:03.850Z,20.60
2018-06-03T02:41:06.042Z,20.60
2018-06-03T02:42:08.330Z,20.50
2018-06-03T02:43:10.511Z,20.50
2018-06-03T02:44:12.692Z,20.60
2018-06-03T02:45:14.896Z,20.50
2018-06-03T02:47:19.271Z,20.40
2018-06-03T02:48:21.466Z,20.40
2018-06-03T02:49:23.651Z,20.40
2018-06-03T02:50:25.856Z,20.40
2018-06-03T02:51:28.060Z,20.40
2018-06-03T02:52:30.239Z,20.40
2018-06-03T02:53:32.431Z,20.40
2018-06-03T02:54:34.603Z,20.40
2018-06-03T02:55:36.784Z,20.40
2018-06-03T02:56:38.938Z,20.40
2018-06-03T02:57:41.102Z,20.40
2018-06-03T02:59:45.479Z,20.30
2018-06-03T03:00:47.676Z,20.30
2018-06-03T03:01:49.851Z,20.30
2018-06-03T03:02:52.003Z,20.30
2018-06-03T03:03:54.158Z,20.30
2018-06-03T03:04:56.363Z,20.20
2018-06-03T03:05:58.543Z,20.20
2018-06-03T03:07:00.711Z,20.20
2018-06-03T03:08:02.882Z,20.20
2018-06-03T03:10:07.575Z,20.20
2018-06-03T03:11:09.751Z,20.20
2018-06-03T03:12:11.943Z,20.30
2018-06-03T03:13:14.129Z,20.20
2018-06-03T03:14:16.303Z,20.20
2018-06-03T03:15:18.480Z,20.20
2018-06-03T03:16:20.644Z,20.10
2018-06-03T03:17:22.814Z,20.10
2018-06-03T03:18:24.990Z,20.10
2018-06-03T03:19:27.149Z,20.10
2018-06-03T03:20:29.342Z,20.10
2018-06-03T03:21:31.530Z,20.10
2018-06-03T03:22:33.710Z,20.10
2018-06-03T03:23:35.884Z,20.10
2018-06-03T03:24:38.060Z,20.10
2018-06-03T03:25:40.271Z,20.10
2018-06-03T03:27:44.659Z,20.10
2018-06-03T03:28:46.819Z,20.10
2018-06-03T03:29:49.003Z,20.10
2018-06-03T03:30:51.569Z,20.10
2018-06-03T03:31:53.753Z,20.10
2018-06-03T03:32:55.928Z,20.10
2018-06-03T03:33:58.106Z,20.10
2018-06-03T03:35:00.273Z,20.10
2018-06-03T03:36:02.489Z,20.10
2018-06-03T03:37:04.649Z,20.10
2018-06-03T03:38:06.811Z,20.10
2018-06-03T03:39:09.677Z,20.10
2018-06-03T03:40:11.860Z,20.10
2018-06-03T03:41:14.039Z,20.10
2018-06-03T03:42:16.227Z,20.10
2018-06-03T03:44:20.644Z,20.00
2018-06-03T03:46:25.015Z,20.10
2018-06-03T03:47:27.174Z,20.10
2018-06-03T03:48:29.331Z,20.10
2018-06-03T03:49:31.486Z,20.00
2018-06-03T03:50:33.661Z,20.00
2018-06-03T03:51:35.854Z,20.10
2018-06-03T03:52:38.023Z,20.00
2018-06-03T03:53:40.180Z,20.00
2018-06-03T03:54:42.338Z,20.00
2018-06-03T03:55:44.514Z,20.10
2018-06-03T03:56:46.698Z,20.00
2018-06-03T03:57:48.862Z,20.00
2018-06-03T03:58:51.048Z,20.00
2018-06-03T03:59:53.223Z,20.00
2018-06-03T04:00:55.396Z,19.90
2018-06-03T04:03:23.019Z,19.90
2018-06-03T04:04:25.344Z,19.90
2018-06-03T04:05:27.611Z,19.90
2018-06-03T04:06:29.909Z,20.00
2018-06-03T04:07:32.142Z,19.90
2018-06-03T04:08:34.379Z,19.90
2018-06-03T04:09:36.630Z,19.90
2018-06-03T04:10:38.859Z,19.90
2018-06-03T04:11:41.099Z,19.90
2018-06-03T04:13:45.617Z,19.90
2018-06-03T04:14:47.994Z,19.90
2018-06-03T04:15:50.292Z,20.00
2018-06-03T04:16:52.546Z,20.00
2018-06-03T04:17:54.807Z,20.00
2018-06-03T04:18:57.034Z,20.00
2018-06-03T04:21:01.510Z,20.00
2018-06-03T04:22:03.753Z,20.10
2018-06-03T04:23:05.988Z,20.00
2018-06-03T04:24:08.249Z,20.10
2018-06-03T04:25:10.468Z,20.20
2018-06-03T04:26:12.710Z,20.10
2018-06-03T04:27:14.977Z,20.20
2018-06-03T04:28:17.199Z,20.20
2018-06-03T04:29:19.422Z,20.20
2018-06-03T04:30:21.686Z,20.20
2018-06-03T04:31:23.912Z,20.20
2018-06-03T04:32:26.172Z,20.20
2018-06-03T04:33:28.437Z,20.20
2018-06-03T04:34:30.682Z,20.20
2018-06-03T04:35:32.927Z,20.30
2018-06-03T04:36:35.160Z,20.30
2018-06-03T04:37:37.403Z,20.40
2018-06-03T04:38:39.659Z,20.30
2018-06-03T04:39:41.932Z,20.30
2018-06-03T04:40:44.190Z,20.30
2018-06-03T04:41:46.433Z,20.30
2018-06-03T04:42:48.710Z,20.30
2018-06-03T04:43:50.934Z,20.30
2018-06-03T04:44:53.187Z,20.30
2018-06-03T04:45:55.462Z,20.30
2018-06-03T04:46:57.719Z,20.30
2018-06-03T04:47:59.963Z,20.20
2018-06-03T04:49:02.210Z,20.30
2018-06-03T04:50:04.503Z,20.30
2018-06-03T04:52:08.990Z,20.20
2018-06-03T04:53:11.224Z,20.30
2018-06-03T04:54:13.462Z,20.20
2018-06-03T04:55:15.694Z,20.20
2018-06-03T04:57:20.190Z,20.20
2018-06-03T04:58:22.470Z,20.30
2018-06-03T04:59:24.771Z,20.30
2018-06-03T05:00:27.034Z,20.20
2018-06-03T05:01:29.260Z,20.40
2018-06-03T05:02:31.510Z,20.20
2018-06-03T05:03:33.802Z,20.30
2018-06-03T05:04:36.018Z,20.30
2018-06-03T05:05:38.257Z,20.30
2018-06-03T05:06:40.553Z,20.40
2018-06-03T05:07:42.783Z,20.40
2018-06-03T05:08:45.051Z,20.40
2018-06-03T05:09:47.305Z,20.40
2018-06-03T05:10:49.559Z,20.50
2018-06-03T05:11:51.824Z,20.50
2018-06-03T05:12:54.088Z,20.50
2018-06-03T05:13:56.327Z,20.60
2018-06-03T05:14:58.599Z,20.60
2018-06-03T05:16:00.848Z,20.60
2018-06-03T05:17:03.125Z,20.60
2018-06-03T05:18:05.382Z,20.60
2018-06-03T05:19:07.639Z,20.60
2018-06-03T05:20:09.862Z,20.60
2018-06-03T05:21:12.082Z,20.60
2018-06-03T05:22:14.315Z,20.60
2018-06-03T05:23:16.603Z,20.60
2018-06-03T05:24:18.819Z,20.50
2018-06-03T05:25:21.042Z,20.50
2018-06-03T05:26:23.278Z,20.50
2018-06-03T05:27:25.538Z,20.60
2018-06-03T05:28:27.786Z,20.60
2018-06-03T05:29:30.002Z,20.60
2018-06-03T05:30:32.214Z,20.60
2018-06-03T05:31:34.454Z,20.60
2018-06-03T05:32:36.698Z,20.70
2018-06-03T05:33:38.942Z,20.70
2018-06-03T05:34:41.178Z,20.80
2018-06-03T05:36:45.679Z,20.80
2018-06-03T05:37:47.934Z,20.90
2018-06-03T05:38:50.204Z,20.90
2018-06-03T05:39:52.464Z,21.10
2018-06-03T05:40:54.731Z,21.10
2018-06-03T05:42:59.215Z,21.20
2018-06-03T05:44:01.502Z,21.20
2018-06-03T05:45:03.778Z,21.30
2018-06-03T05:46:06.003Z,21.30
2018-06-03T05:47:08.232Z,21.30
2018-06-03T05:48:10.551Z,21.30
2018-06-03T05:49:12.782Z,21.40
2018-06-03T05:50:15.012Z,21.30
2018-06-03T05:51:17.273Z,21.30
2018-06-03T05:52:19.518Z,21.30
2018-06-03T05:53:21.745Z,21.30
2018-06-03T05:54:23.993Z,21.20
2018-06-03T05:55:26.235Z,21.20
2018-06-03T05:56:28.475Z,21.20
2018-06-03T05:57:30.715Z,21.20
2018-06-03T05:58:32.954Z,21.10
2018-06-03T05:59:35.198Z,21.20
2018-06-03T06:00:37.432Z,21.30
2018-06-03T06:01:39.672Z,21.20
2018-06-03T06:02:41.895Z,21.20
2018-06-03T06:03:44.135Z,21.20
2018-06-03T06:04:46.416Z,21.30
2018-06-03T06:05:48.737Z,21.30
2018-06-03T06:06:50.950Z,21.30
2018-06-03T06:07:53.190Z,21.30
2018-06-03T06:08:55.447Z,21.30
2018-06-03T06:09:57.661Z,21.30
2018-06-03T06:10:59.913Z,21.50
2018-06-03T06:12:02.202Z,21.60
2018-06-03T06:13:04.434Z,21.70
2018-06-03T06:14:06.718Z,21.80
2018-06-03T06:15:08.943Z,21.90
2018-06-03T06:16:11.186Z,22.10
2018-06-03T06:17:13.581Z,22.20
2018-06-03T06:18:15.837Z,22.40
2018-06-03T06:19:18.122Z,22.60
2018-06-03T06:20:20.377Z,22.60
2018-06-03T06:21:22.682Z,22.80
2018-06-03T06:22:24.946Z,22.90
2018-06-03T06:23:27.178Z,23.00
2018-06-03T06:24:29.420Z,23.00
2018-06-03T06:25:31.653Z,23.10
2018-06-03T06:26:33.897Z,23.20
2018-06-03T06:27:36.131Z,23.20
2018-06-03T06:28:38.403Z,23.20
2018-06-03T06:29:40.668Z,23.20
2018-06-03T06:30:42.927Z,23.20
2018-06-03T06:31:45.163Z,23.30
2018-06-03T06:32:47.398Z,23.20
2018-06-03T06:33:49.638Z,23.30
2018-06-03T06:34:51.942Z,23.30
2018-06-03T06:35:54.111Z,23.30
2018-06-03T06:36:56.355Z,23.40
2018-06-03T06:37:58.622Z,23.50
2018-06-03T06:39:00.858Z,23.50
2018-06-03T06:40:03.171Z,23.60
2018-06-03T06:41:05.482Z,23.60
2018-06-03T06:42:07.688Z,23.70
2018-06-03T06:43:09.886Z,23.70
2018-06-03T06:44:12.110Z,23.80
2018-06-03T06:45:14.311Z,23.80
2018-06-03T06:46:16.539Z,23.80
2018-06-03T06:47:18.735Z,23.90
2018-06-03T06:48:20.955Z,23.80
2018-06-03T06:49:23.179Z,23.90
2018-06-03T06:50:25.503Z,23.90
2018-06-03T06:51:27.748Z,23.90
2018-06-03T06:52:29.981Z,23.80
2018-06-03T06:53:32.174Z,23.80
2018-06-03T06:54:34.418Z,23.70
2018-06-03T06:55:36.621Z,23.80
2018-06-03T06:56:38.828Z,23.70
2018-06-03T06:57:41.053Z,23.70
2018-06-03T06:58:43.262Z,23.70
2018-06-03T06:59:45.471Z,23.70
2018-06-03T07:00:47.698Z,23.70
2018-06-03T07:01:49.915Z,23.70
2018-06-03T07:02:52.144Z,23.80
2018-06-03T07:04:56.602Z,23.80
2018-06-03T07:05:58.814Z,23.80
2018-06-03T07:07:01.012Z,23.90
2018-06-03T07:08:03.223Z,23.90
2018-06-03T07:09:06.111Z,23.90
2018-06-03T07:10:08.123Z,23.80
2018-06-03T07:11:10.306Z,23.80
2018-06-03T07:12:12.515Z,23.80
2018-06-03T07:13:14.779Z,23.80
2018-06-03T07:14:16.926Z,23.80
2018-06-03T07:15:19.119Z,23.90
2018-06-03T07:16:21.347Z,23.90
2018-06-03T07:17:23.567Z,24.00
2018-06-03T07:18:25.759Z,24.00
2018-06-03T07:19:28.580Z,24.00
2018-06-03T07:20:30.810Z,24.00
2018-06-03T07:21:33.001Z,24.10
2018-06-03T07:22:35.210Z,24.10
2018-06-03T07:23:37.415Z,24.10
2018-06-03T07:24:39.638Z,24.20
2018-06-03T07:25:41.875Z,24.20
2018-06-03T07:26:44.265Z,24.20
2018-06-03T07:28:48.746Z,24.20
2018-06-03T07:30:53.231Z,24.30
2018-06-03T07:31:55.449Z,24.40
2018-06-03T07:32:57.686Z,24.40
2018-06-03T07:33:59.907Z,24.40
2018-06-03T07:35:02.125Z,24.40
2018-06-03T07:36:04.392Z,24.50
2018-06-03T07:37:06.605Z,24.50
2018-06-03T07:38:08.807Z,24.50
2018-06-03T07:39:11.030Z,24.50
2018-06-03T07:40:13.276Z,24.50
2018-06-03T07:41:15.890Z,24.60
2018-06-03T07:42:18.094Z,24.60
2018-06-03T07:43:20.315Z,24.60
2018-06-03T07:44:22.528Z,24.60
2018-06-03T07:45:24.760Z,24.60
2018-06-03T07:46:26.976Z,24.60
2018-06-03T07:47:29.183Z,24.50
2018-06-03T07:48:31.399Z,24.60
2018-06-03T07:49:33.611Z,24.60
2018-06-03T07:50:35.835Z,24.60
2018-06-03T07:51:38.056Z,24.60
2018-06-03T07:52:40.296Z,24.70
2018-06-03T07:53:42.571Z,24.70
2018-06-03T07:54:44.776Z,24.70
2018-06-03T07:55:47.012Z,24.70
2018-06-03T07:56:49.234Z,24.80
2018-06-03T07:57:51.479Z,24.80
2018-06-03T07:58:53.698Z,24.80
2018-06-03T08:01:30.675Z,24.90
2018-06-03T08:02:32.867Z,24.90
2018-06-03T08:03:35.031Z,25.00
2018-06-03T08:04:37.226Z,25.00
2018-06-03T08:05:39.418Z,25.00
2018-06-03T08:06:41.579Z,25.10
2018-06-03T08:07:43.775Z,25.10
2018-06-03T08:08:45.959Z,25.10
2018-06-03T08:09:48.130Z,25.10
2018-06-03T08:10:50.326Z,25.10
2018-06-03T08:11:52.506Z,25.10
2018-06-03T08:12:54.694Z,25.20
2018-06-03T08:14:59.103Z,25.10
2018-06-03T08:17:03.536Z,25.10
2018-06-03T08:18:05.746Z,25.10
2018-06-03T08:19:07.995Z,25.10
2018-06-03T08:20:10.175Z,25.20
2018-06-03T08:21:12.350Z,25.20
2018-06-03T08:22:14.558Z,25.30
2018-06-03T08:23:16.731Z,25.30
2018-06-03T08:24:18.927Z,25.40
2018-06-03T08:25:21.131Z,25.40
2018-06-03T08:26:23.310Z,25.40
2018-06-03T08:27:25.476Z,25.40
2018-06-03T08:28:27.696Z,25.40
2018-06-03T08:29:29.867Z,25.50
2018-06-03T08:30:32.055Z,25.50
2018-06-03T08:31:34.235Z,25.50
2018-06-03T08:32:36.408Z,25.60
2018-06-03T08:33:38.598Z,25.60
2018-06-03T08:34:40.782Z,25.60
2018-06-03T08:35:42.960Z,25.60
2018-06-03T08:36:45.143Z,25.60
2018-06-03T08:37:47.326Z,25.60
2018-06-03T08:38:49.506Z,25.70
2018-06-03T08:39:51.760Z,25.60
2018-06-03T08:40:53.974Z,25.60
2018-06-03T08:41:56.151Z,25.70
2018-06-03T08:42:58.359Z,25.80
2018-06-03T08:44:00.603Z,25.80
2018-06-03T08:45:02.826Z,25.90
2018-06-03T08:46:05.034Z,25.70
2018-06-03T08:47:07.237Z,25.70
2018-06-03T08:48:09.451Z,25.70
2018-06-03T08:49:11.624Z,25.70
2018-06-03T08:50:13.797Z,25.70
2018-06-03T08:51:15.986Z,25.70
2018-06-03T08:52:18.160Z,25.70
2018-06-03T08:53:20.346Z,25.80
2018-06-03T08:54:22.538Z,25.80
2018-06-03T08:55:24.695Z,25.90
2018-06-03T08:56:26.919Z,25.90
2018-06-03T08:57:29.098Z,26.00
2018-06-03T08:58:31.291Z,25.90
2018-06-03T08:59:33.503Z,25.90
2018-06-03T09:00:35.707Z,26.00
2018-06-03T09:01:37.876Z,26.00
2018-06-03T09:02:40.063Z,26.00
2018-06-03T09:03:42.246Z,26.10
2018-06-03T09:04:44.434Z,26.10
2018-06-03T09:05:46.602Z,26.10
2018-06-03T09:06:48.780Z,26.10
2018-06-03T09:07:50.960Z,26.20
2018-06-03T09:08:53.131Z,26.20
2018-06-03T09:09:55.335Z,26.20
2018-06-03T09:11:59.766Z,26.20
2018-06-03T09:13:01.982Z,26.30
2018-06-03T09:14:04.155Z,26.30
2018-06-03T09:15:06.326Z,26.30
2018-06-03T09:16:08.510Z,26.30
2018-06-03T09:17:10.703Z,26.30
2018-06-03T09:19:15.119Z,26.40
2018-06-03T09:21:19.538Z,26.50
2018-06-03T09:23:23.944Z,26.50
2018-06-03T09:24:26.120Z,26.50
2018-06-03T09:25:28.310Z,26.60
2018-06-03T09:26:30.483Z,26.60
2018-06-03T09:27:32.683Z,26.60
2018-06-03T09:28:34.870Z,26.60
2018-06-03T09:29:37.043Z,26.60
2018-06-03T09:30:39.271Z,26.60
2018-06-03T09:32:43.651Z,26.70
2018-06-03T09:33:45.814Z,26.70
2018-06-03T09:34:47.990Z,26.70
2018-06-03T09:35:50.207Z,26.80
2018-06-03T09:36:52.414Z,26.80
2018-06-03T09:37:54.610Z,26.80
2018-06-03T09:38:56.823Z,26.90
2018-06-03T09:39:59.003Z,26.90
2018-06-03T09:41:01.171Z,27.00
2018-06-03T09:42:03.420Z,27.00
2018-06-03T09:43:05.547Z,27.00
2018-06-03T09:44:07.737Z,27.10
2018-06-03T09:45:09.950Z,27.10
2018-06-03T09:46:12.145Z,27.10
2018-06-03T09:47:14.334Z,27.20
2018-06-03T09:48:16.530Z,27.20
2018-06-03T09:49:18.707Z,27.20
2018-06-03T09:50:20.879Z,27.20
2018-06-03T09:51:23.051Z,27.30
2018-06-03T09:52:25.254Z,27.30
2018-06-03T09:53:27.467Z,27.30
2018-06-03T09:54:29.658Z,27.40
2018-06-03T09:55:31.856Z,27.40
2018-06-03T09:56:34.416Z,27.50
2018-06-03T09:57:36.596Z,27.50
2018-06-03T09:58:38.779Z,27.60
2018-06-03T09:59:40.954Z,27.70
2018-06-03T10:00:43.128Z,27.70
2018-06-03T10:01:45.327Z,27.60
2018-06-03T10:02:47.530Z,27.60
2018-06-03T10:03:49.706Z,27.70
2018-06-03T10:04:51.887Z,27.70
2018-06-03T10:05:54.046Z,27.70
2018-06-03T10:07:58.458Z,27.70
2018-06-03T10:09:00.693Z,27.70
2018-06-03T10:10:02.927Z,27.70
2018-06-03T10:11:05.308Z,27.80
2018-06-03T10:12:07.483Z,27.80
2018-06-03T10:13:09.694Z,27.90
2018-06-03T10:14:11.887Z,27.90
2018-06-03T10:15:14.059Z,27.90
2018-06-03T10:16:16.251Z,27.80
2018-06-03T10:17:18.470Z,27.80
2018-06-03T10:18:20.655Z,27.70
2018-06-03T10:19:22.862Z,27.60
2018-06-03T10:21:27.319Z,27.50
2018-06-03T10:22:29.466Z,27.40
2018-06-03T10:23:31.655Z,27.40
2018-06-03T10:24:33.867Z,27.30
2018-06-03T10:25:36.067Z,27.20
2018-06-03T10:26:38.255Z,27.10
2018-06-03T10:27:40.453Z,27.10
2018-06-03T10:28:42.640Z,27.10
2018-06-03T10:30:47.034Z,27.10
2018-06-03T10:31:49.283Z,27.20
2018-06-03T10:32:51.482Z,27.20
2018-06-03T10:34:56.115Z,27.50
2018-06-03T10:35:58.359Z,27.60
2018-06-03T10:37:00.562Z,27.60
2018-06-03T10:38:02.739Z,27.70
2018-06-03T10:39:06.233Z,27.80
2018-06-03T10:40:08.485Z,27.70
2018-06-03T10:41:10.686Z,27.60
2018-06-03T10:43:15.121Z,27.50
2018-06-03T10:44:17.346Z,27.60
2018-06-03T10:45:19.540Z,27.70
2018-06-03T10:46:21.787Z,27.70
2018-06-03T10:47:23.995Z,27.80
2018-06-03T10:48:26.189Z,27.80
2018-06-03T10:49:28.392Z,27.90
2018-06-03T10:50:30.630Z,28.00
2018-06-03T10:51:32.843Z,28.00
2018-06-03T10:52:35.035Z,28.20
2018-06-03T10:53:37.190Z,28.20
2018-06-03T10:55:41.603Z,28.30
2018-06-03T10:57:46.035Z,28.50
2018-06-03T10:58:48.235Z,28.50
2018-06-03T10:59:50.426Z,28.50
2018-06-03T11:00:52.623Z,28.60
2018-06-03T11:01:54.947Z,28.50
2018-06-03T11:02:57.177Z,28.50
2018-06-03T11:03:59.375Z,28.60
2018-06-03T11:05:01.566Z,28.60
2018-06-03T11:06:03.808Z,28.70
2018-06-03T11:07:06.008Z,28.80
2018-06-03T11:08:08.200Z,28.80
2018-06-03T11:09:10.582Z,28.90
2018-06-03T11:10:12.778Z,28.90
2018-06-03T11:11:15.023Z,29.00
2018-06-03T11:12:17.238Z,29.00
2018-06-03T11:13:19.415Z,29.00
2018-06-03T11:14:21.590Z,29.00
2018-06-03T11:15:23.811Z,29.10
2018-06-03T11:16:25.999Z,29.10
2018-06-03T11:17:28.205Z,29.10
2018-06-03T11:18:30.362Z,29.10
2018-06-03T11:19:32.531Z,29.20
2018-06-03T11:20:34.751Z,29.20
2018-06-03T11:21:36.997Z,29.20
2018-06-03T11:22:39.190Z,29.20
2018-06-03T11:23:41.351Z,29.20
2018-06-03T11:24:43.551Z,29.30
2018-06-03T11:25:45.727Z,29.20
2018-06-03T11:26:47.937Z,29.20
2018-06-03T11:27:50.114Z,29.10
2018-06-03T11:28:52.301Z,29.10
2018-06-03T11:29:55.490Z,29.10
2018-06-03T11:31:59.902Z,29.00
2018-06-03T11:33:02.062Z,29.00
2018-06-03T11:34:04.307Z,29.10
2018-06-03T11:35:06.497Z,29.10
2018-06-03T11:36:08.695Z,29.10
2018-06-03T11:37:10.927Z,29.00
2018-06-03T11:38:13.127Z,29.00
2018-06-03T11:39:15.315Z,29.00
2018-06-03T11:40:17.522Z,28.90
2018-06-03T11:41:19.711Z,28.90
2018-06-03T11:43:24.118Z,28.80
2018-06-03T11:45:28.567Z,28.70
2018-06-03T11:46:30.768Z,28.70
2018-06-03T11:47:32.966Z,28.70
2018-06-03T11:48:35.143Z,28.80
2018-06-03T11:49:37.323Z,28.80
2018-06-03T11:50:39.510Z,28.70
2018-06-03T11:51:41.706Z,28.70
2018-06-03T11:52:43.866Z,28.70
2018-06-03T11:53:46.090Z,28.70
2018-06-03T11:54:48.228Z,28.70
2018-06-03T11:55:50.439Z,28.80
2018-06-03T11:56:59.195Z,28.80
2018-06-03T11:58:40.804Z,28.90
2018-06-03T11:59:43.763Z,29.00
2018-06-03T12:00:45.960Z,29.20
2018-06-03T12:01:48.204Z,29.30
2018-06-03T12:02:50.358Z,29.40
2018-06-03T12:03:52.538Z,29.50
2018-06-03T12:04:54.740Z,29.50
2018-06-03T12:05:56.955Z,29.60
2018-06-03T12:06:59.145Z,29.70
2018-06-03T12:08:01.369Z,29.80
2018-06-03T12:09:05.283Z,29.80
2018-06-03T12:10:07.470Z,29.80
2018-06-03T12:11:09.651Z,29.80
2018-06-03T12:12:11.837Z,29.80
2018-06-03T12:14:22.927Z,29.90
2018-06-03T12:15:25.110Z,30.00
2018-06-03T12:16:27.283Z,30.10
2018-06-03T12:17:29.465Z,30.20
2018-06-03T12:18:31.639Z,30.20
2018-06-03T12:19:33.814Z,30.30
2018-06-03T12:20:36.008Z,30.30
2018-06-03T12:21:38.210Z,30.30
2018-06-03T12:22:40.427Z,30.40
2018-06-03T12:23:42.607Z,30.30
2018-06-03T12:24:44.790Z,30.40
2018-06-03T12:26:49.217Z,30.40
2018-06-03T12:27:51.386Z,30.40
2018-06-03T12:28:53.594Z,30.40
2018-06-03T12:29:55.784Z,30.30
2018-06-03T12:30:57.955Z,30.30
2018-06-03T12:32:00.171Z,30.20
2018-06-03T12:33:02.355Z,30.20
2018-06-03T12:34:04.523Z,30.10
2018-06-03T12:36:08.925Z,30.00
2018-06-03T12:37:11.119Z,30.00
2018-06-03T12:38:13.336Z,29.90
2018-06-03T12:40:17.903Z,29.90
2018-06-03T12:41:20.121Z,29.80
2018-06-03T12:42:22.294Z,29.80
2018-06-03T12:43:24.499Z,29.80
2018-06-03T12:44:26.777Z,29.90
2018-06-03T12:45:29.007Z,29.90
2018-06-03T12:46:31.215Z,29.90
2018-06-03T12:47:33.421Z,29.90
2018-06-03T12:48:35.614Z,29.90
2018-06-03T12:49:37.819Z,29.90
2018-06-03T12:50:40.003Z,29.90
2018-06-03T12:52:51.049Z,30.00
2018-06-03T12:53:53.230Z,30.00
2018-06-03T12:54:55.410Z,30.10
2018-06-03T12:55:57.607Z,30.10
2018-06-03T12:56:59.814Z,30.20
2018-06-03T12:58:01.995Z,30.30
2018-06-03T12:59:04.239Z,30.50
2018-06-03T13:00:06.454Z,30.60
2018-06-03T13:01:08.683Z,30.70
2018-06-03T13:02:10.842Z,30.80
2018-06-03T13:03:13.111Z,30.90
2018-06-03T13:04:15.261Z,30.90
2018-06-03T13:05:17.447Z,31.00
2018-06-03T13:06:19.638Z,31.00
2018-06-03T13:07:21.842Z,31.00
2018-06-03T13:08:24.071Z,31.00
2018-06-03T13:09:26.278Z,31.00
2018-06-03T13:10:28.463Z,31.00
2018-06-03T13:11:30.653Z,31.00
2018-06-03T13:12:32.824Z,31.00
2018-06-03T13:13:34.994Z,31.00
2018-06-03T13:14:37.187Z,31.10
2018-06-03T13:15:39.367Z,31.00
2018-06-03T13:16:41.554Z,31.10
2018-06-03T13:17:43.738Z,31.10
2018-06-03T13:18:45.915Z,31.20
2018-06-03T13:19:48.115Z,31.20
2018-06-03T13:20:50.327Z,31.30
2018-06-03T13:21:52.534Z,31.20
2018-06-03T13:22:54.719Z,31.30
2018-06-03T13:23:56.898Z,31.30
2018-06-03T13:24:59.111Z,31.30
2018-06-03T13:26:01.361Z,31.30
2018-06-03T13:27:03.558Z,31.30
2018-06-03T13:28:05.804Z,31.40
2018-06-03T13:29:07.983Z,31.30
2018-06-03T13:30:10.178Z,31.40
2018-06-03T13:31:12.367Z,31.40
2018-06-03T13:32:14.567Z,31.30
2018-06-03T13:33:16.786Z,31.30
2018-06-03T13:34:18.979Z,31.30
2018-06-03T13:35:21.166Z,31.30
2018-06-03T13:36:23.348Z,31.30
2018-06-03T13:37:25.567Z,31.30
2018-06-03T13:38:27.745Z,31.30
2018-06-03T13:39:29.923Z,31.30
2018-06-03T13:40:32.125Z,31.40
2018-06-03T13:41:34.287Z,31.40
2018-06-03T13:42:36.467Z,31.40
2018-06-03T13:43:38.663Z,31.40
2018-06-03T13:44:40.828Z,31.40
2018-06-03T13:45:43.015Z,31.40
2018-06-03T13:46:45.202Z,31.40
2018-06-03T13:47:47.382Z,31.40
2018-06-03T13:48:49.563Z,31.50
2018-06-03T13:49:51.727Z,31.50
2018-06-03T13:50:53.931Z,31.60
2018-06-03T13:51:56.111Z,31.60
2018-06-03T13:52:58.352Z,31.70
2018-06-03T13:54:00.540Z,31.70
2018-06-03T13:55:02.767Z,31.70
2018-06-03T13:56:04.942Z,31.80
2018-06-03T13:57:07.135Z,31.80
2018-06-03T13:58:09.330Z,31.80
2018-06-03T13:59:11.538Z,31.80
2018-06-03T14:00:13.731Z,31.70
2018-06-03T14:01:15.906Z,31.70
2018-06-03T14:02:18.094Z,31.70
2018-06-03T14:03:20.283Z,31.70
2018-06-03T14:04:22.526Z,31.70
2018-06-03T14:05:24.716Z,31.80
2018-06-03T14:07:29.116Z,31.70
2018-06-03T14:09:33.546Z,31.60
2018-06-03T14:10:35.746Z,31.60
2018-06-03T14:11:37.956Z,31.60
2018-06-03T14:12:40.123Z,31.60
2018-06-03T14:13:42.295Z,31.60
2018-06-03T14:14:44.487Z,31.60